Time;durP1;ratioP1;P1;durP2;ratioP2;P2;SDS_P1;SDS_P2;PMS_P1;PMS_P2;Temp;Humidity;BMP_temperature;BMP_pressure;BME280_temperature;BME280_humidity;BME280_pressure;Samples;Min_cycle;Max_cycle;Signal;HPM_P1;HPM_P2
2022/01/02 00:02:12;;;;;;;;;;;11.40;99.90;;;;;;5072226;28;19985;-64
2022/01/02 00:04:44;;;;;;;;;;;11.40;99.90;;;;;;5083856;28;19923;-64
2022/01/02 00:07:10;;;;;;;;;;;11.30;99.90;;;;;;5075599;28;19924;-64
2022/01/02 00:09:36;;;;;;;;;;;11.40;99.90;;;;;;5073044;28;20384;-64
2022/01/02 00:12:10;;;;;;;;;;;11.40;99.90;;;;;;5062352;28;19939;-64
2022/01/02 00:14:38;;;;;;;;;;;11.40;99.90;;;;;;5106245;27;20413;-64
2022/01/02 00:17:04;;;;;;;;;;;11.30;99.90;;;;;;5078928;27;19915;-64
2022/01/02 00:19:31;;;;;;;;;;;11.30;99.90;;;;;;5099023;27;20409;-64
2022/01/02 00:22:02;;;;;;;;;;;11.30;99.90;;;;;;5081273;28;19916;-64
2022/01/02 00:24:29;;;;;;;;;;;11.50;99.90;;;;;;5090795;27;19928;-64
2022/01/02 00:26:55;;;;;;;;;;;11.50;99.90;;;;;;5079662;28;19924;-64
2022/01/02 00:29:21;;;;;;;;;;;11.50;99.90;;;;;;5066373;28;19990;-64
2022/01/02 00:31:47;;;;;;;;;;;11.40;99.90;;;;;;5063314;28;20410;-64
2022/01/02 00:34:14;;;;;;;;;;;11.30;99.90;;;;;;5083799;28;19919;-64
2022/01/02 00:36:39;;;;;;;;;;;11.40;99.90;;;;;;5074607;28;19979;-64
2022/01/02 00:39:06;;;;;;;;;;;11.40;99.90;;;;;;5078801;28;20387;-64
2022/01/02 00:41:42;;;;;;;;;;;11.30;99.90;;;;;;5081369;28;20003;-64
2022/01/02 00:44:13;;;;;;;;;;;11.30;99.90;;;;;;5080209;28;19931;-64
2022/01/02 00:46:44;;;;;;;;;;;11.20;99.90;;;;;;5059232;28;19916;-64
2022/01/02 00:49:11;;;;;;;;;;;11.30;99.90;;;;;;5075718;28;20551;-64
2022/01/02 00:51:43;;;;;;;;;;;11.40;99.90;;;;;;5077229;28;20045;-64
2022/01/02 00:54:10;;;;;;;;;;;11.40;99.90;;;;;;5082242;27;19924;-64
2022/01/02 00:56:40;;;;;;;;;;;11.40;99.90;;;;;;5075524;28;20601;-64
2022/01/02 00:59:08;;;;;;;;;;;11.30;99.90;;;;;;5072507;28;19973;-64
2022/01/02 01:01:34;;;;;;;;;;;11.40;99.90;;;;;;5080811;28;19916;-64
2022/01/02 01:04:01;;;;;;;;;;;11.40;99.90;;;;;;5077861;28;19943;-64
2022/01/02 01:06:32;;;;;;;;;;;11.50;99.90;;;;;;5080665;28;20011;-64
2022/01/02 01:08:59;;;;;;;;;;;11.40;99.90;;;;;;5079473;28;20383;-64
2022/01/02 01:11:26;;;;;;;;;;;11.40;99.90;;;;;;5089696;28;20015;-64
2022/01/02 01:13:53;;;;;;;;;;;11.40;99.90;;;;;;5084852;28;19927;-64
2022/01/02 01:16:19;;;;;;;;;;;11.50;99.90;;;;;;5061144;28;19988;-64
2022/01/02 01:18:45;;;;;;;;;;;11.40;99.90;;;;;;5078354;28;19917;-64
2022/01/02 01:21:10;;;;;;;;;;;11.40;99.90;;;;;;5084608;28;19923;-64
2022/01/02 01:23:35;;;;;;;;;;;11.30;99.90;;;;;;5080604;28;20035;-64
2022/01/02 01:26:06;;;;;;;;;;;11.30;99.90;;;;;;5081356;28;20025;-64
2022/01/02 01:28:31;;;;;;;;;;;11.30;99.90;;;;;;5082837;28;19991;-64
2022/01/02 01:30:57;;;;;;;;;;;11.30;99.90;;;;;;5092029;28;20010;-64
2022/01/02 01:33:23;;;;;;;;;;;11.40;99.90;;;;;;5083312;28;20027;-64
2022/01/02 01:35:48;;;;;;;;;;;11.50;99.90;;;;;;5084706;28;19934;-64
2022/01/02 01:38:14;;;;;;;;;;;11.60;99.90;;;;;;5084150;28;19977;-64
2022/01/02 01:40:45;;;;;;;;;;;11.70;99.90;;;;;;5091703;28;19951;-64
2022/01/02 01:43:13;;;;;;;;;;;11.60;99.90;;;;;;5087473;28;19959;-64
2022/01/02 01:45:39;;;;;;;;;;;11.50;99.90;;;;;;5066587;28;20054;-64
2022/01/02 01:48:06;;;;;;;;;;;11.50;99.90;;;;;;5076303;28;20011;-64
2022/01/02 01:50:33;;;;;;;;;;;11.40;99.90;;;;;;5090996;28;20022;-64
2022/01/02 01:52:58;;;;;;;;;;;11.40;99.90;;;;;;5093720;28;19919;-64
2022/01/02 01:55:24;;;;;;;;;;;11.30;99.90;;;;;;5082565;28;19938;-64
2022/01/02 01:57:53;;;;;;;;;;;11.30;99.90;;;;;;5082433;28;20032;-64
2022/01/02 02:00:20;;;;;;;;;;;11.30;99.90;;;;;;5079384;28;19956;-64
2022/01/02 02:02:45;;;;;;;;;;;11.30;99.90;;;;;;5088660;28;19912;-64
2022/01/02 02:05:11;;;;;;;;;;;11.40;99.90;;;;;;5082318;28;19973;-64
2022/01/02 02:07:41;;;;;;;;;;;11.50;99.90;;;;;;5084894;28;20260;-64
2022/01/02 02:12:36;;;;;;;;;;;11.50;99.90;;;;;;5092305;28;19931;-64
2022/01/02 02:15:02;;;;;;;;;;;11.50;99.90;;;;;;5084727;28;19916;-64
2022/01/02 02:17:28;;;;;;;;;;;11.50;99.90;;;;;;5092706;27;20007;-64
2022/01/02 02:19:57;;;;;;;;;;;11.40;99.90;;;;;;5083695;28;20008;-64
2022/01/02 02:22:24;;;;;;;;;;;11.40;99.90;;;;;;5085378;28;20302;-64
2022/01/02 02:24:50;;;;;;;;;;;11.40;99.90;;;;;;5068668;28;19971;-64
2022/01/02 02:27:20;;;;;;;;;;;11.30;99.90;;;;;;5089789;28;20423;-64
2022/01/02 02:29:46;;;;;;;;;;;11.30;99.90;;;;;;5088808;28;19916;-64
2022/01/02 02:32:11;;;;;;;;;;;11.30;99.90;;;;;;5085851;28;19930;-64
2022/01/02 02:34:37;;;;;;;;;;;11.30;99.90;;;;;;5078529;28;19920;-64
2022/01/02 02:37:02;;;;;;;;;;;11.40;99.90;;;;;;5082504;28;20364;-64
2022/01/02 02:39:32;;;;;;;;;;;11.40;99.90;;;;;;5088977;28;19985;-64
2022/01/02 02:41:57;;;;;;;;;;;11.40;99.90;;;;;;5076715;28;19920;-64
2022/01/02 02:44:36;;;;;;;;;;;11.50;99.90;;;;;;5080290;28;20422;-64
2022/01/02 02:49:45;;;;;;;;;;;11.50;99.90;;;;;;5083359;28;19978;-64
2022/01/02 02:52:29;;;;;;;;;;;11.50;99.90;;;;;;5064331;28;20575;-64
2022/01/02 02:54:55;;;;;;;;;;;11.40;99.90;;;;;;5079102;28;19994;-64
2022/01/02 02:57:20;;;;;;;;;;;11.30;99.90;;;;;;5080348;28;20348;-63
2022/01/02 02:59:46;;;;;;;;;;;11.30;99.90;;;;;;5077533;28;19919;-63
2022/01/02 03:02:11;;;;;;;;;;;11.30;99.90;;;;;;5081157;28;20444;-63
2022/01/02 03:04:37;;;;;;;;;;;11.30;99.90;;;;;;5087317;28;19931;-63
2022/01/02 03:07:02;;;;;;;;;;;11.30;99.90;;;;;;5074334;28;20347;-63
2022/01/02 03:09:38;;;;;;;;;;;11.30;99.90;;;;;;5090360;28;19917;-63
2022/01/02 03:12:05;;;;;;;;;;;11.40;99.90;;;;;;5081243;28;19924;-63
2022/01/02 03:14:32;;;;;;;;;;;11.30;99.90;;;;;;5074569;28;19966;-63
2022/01/02 03:16:57;;;;;;;;;;;11.20;99.90;;;;;;5081268;28;19920;-63
2022/01/02 03:19:23;;;;;;;;;;;11.30;99.90;;;;;;5078222;28;20014;-63
2022/01/02 03:21:48;;;;;;;;;;;11.30;99.90;;;;;;5083722;28;19946;-63
2022/01/02 03:24:14;;;;;;;;;;;11.50;99.90;;;;;;5083418;28;19937;-63
2022/01/02 03:26:39;;;;;;;;;;;11.40;99.90;;;;;;5081655;28;19922;-63
2022/01/02 03:29:05;;;;;;;;;;;11.50;99.90;;;;;;5079113;28;19919;-63
2022/01/02 03:31:30;;;;;;;;;;;11.40;99.90;;;;;;5073745;28;19930;-63
2022/01/02 03:33:56;;;;;;;;;;;11.40;99.90;;;;;;5064008;28;20311;-63
2022/01/02 03:36:21;;;;;;;;;;;11.40;99.90;;;;;;5061012;28;19922;-63
2022/01/02 03:38:47;;;;;;;;;;;11.30;99.90;;;;;;5077160;28;19920;-63
2022/01/02 03:41:12;;;;;;;;;;;11.20;99.90;;;;;;5062223;28;20325;-63
2022/01/02 03:43:38;;;;;;;;;;;11.10;99.90;;;;;;5082069;28;19992;-63
2022/01/02 03:46:04;;;;;;;;;;;11.20;99.90;;;;;;5065767;28;20015;-63
2022/01/02 03:48:31;;;;;;;;;;;11.10;99.90;;;;;;5090146;28;19920;-63
2022/01/02 03:50:56;;;;;;;;;;;11.10;99.90;;;;;;5086526;28;19920;-63
2022/01/02 03:53:22;;;;;;;;;;;11.20;99.90;;;;;;5092700;28;21038;-63
2022/01/02 03:55:47;;;;;;;;;;;11.20;99.90;;;;;;5084378;28;20412;-63
2022/01/02 03:58:13;;;;;;;;;;;11.20;99.90;;;;;;5087099;28;19939;-63
2022/01/02 04:00:38;;;;;;;;;;;11.20;99.90;;;;;;5082255;28;19981;-63
2022/01/02 04:03:04;;;;;;;;;;;11.30;99.90;;;;;;5078962;28;19916;-63
2022/01/02 04:05:29;;;;;;;;;;;11.30;99.90;;;;;;5085309;28;19947;-63
2022/01/02 04:07:55;;;;;;;;;;;11.40;99.90;;;;;;5083092;28;19912;-63
2022/01/02 04:10:20;;;;;;;;;;;11.30;99.90;;;;;;5077886;28;19956;-63
2022/01/02 04:12:46;;;;;;;;;;;11.30;99.90;;;;;;5075555;28;19917;-64
2022/01/02 04:15:12;;;;;;;;;;;11.30;99.90;;;;;;5081540;28;19920;-63
2022/01/02 04:17:38;;;;;;;;;;;11.30;99.90;;;;;;5078989;28;19916;-63
2022/01/02 04:20:04;;;;;;;;;;;11.20;99.90;;;;;;5081091;28;19913;-62
2022/01/02 04:22:30;;;;;;;;;;;11.20;99.90;;;;;;5080558;28;19913;-63
2022/01/02 04:24:55;;;;;;;;;;;11.10;99.90;;;;;;5078553;28;19965;-63
2022/01/02 04:27:22;;;;;;;;;;;11.10;99.90;;;;;;5081093;28;19916;-62
2022/01/02 04:29:47;;;;;;;;;;;11.20;99.90;;;;;;5080328;28;19913;-63
2022/01/02 04:32:13;;;;;;;;;;;11.20;99.90;;;;;;5079255;28;19942;-63
2022/01/02 04:34:39;;;;;;;;;;;11.20;99.90;;;;;;5076724;28;19950;-63
2022/01/02 04:37:05;;;;;;;;;;;11.20;99.90;;;;;;5075306;28;19924;-63
2022/01/02 04:39:31;;;;;;;;;;;11.20;99.90;;;;;;5063898;28;19924;-63
2022/01/02 04:41:57;;;;;;;;;;;11.20;99.90;;;;;;5083749;28;19912;-63
2022/01/02 04:44:22;;;;;;;;;;;11.10;99.90;;;;;;5082315;28;20457;-63
2022/01/02 04:46:48;;;;;;;;;;;11.10;99.90;;;;;;5080013;28;19976;-63
2022/01/02 04:49:13;;;;;;;;;;;11.10;99.90;;;;;;5079795;28;19916;-63
2022/01/02 04:51:39;;;;;;;;;;;11.10;99.90;;;;;;5082997;28;19920;-63
2022/01/02 04:54:04;;;;;;;;;;;11.10;99.90;;;;;;5088251;28;20018;-63
2022/01/02 04:56:30;;;;;;;;;;;11.20;99.90;;;;;;5080833;28;19920;-63
2022/01/02 04:58:55;;;;;;;;;;;11.20;99.90;;;;;;5085751;28;19969;-63
2022/01/02 05:01:21;;;;;;;;;;;11.20;99.90;;;;;;5073665;28;20595;-63
2022/01/02 05:03:46;;;;;;;;;;;11.20;99.90;;;;;;5081162;28;19924;-63
2022/01/02 05:06:12;;;;;;;;;;;11.00;99.90;;;;;;5077152;28;19916;-63
2022/01/02 05:08:37;;;;;;;;;;;11.00;99.90;;;;;;5076493;28;19912;-63
2022/01/02 05:11:03;;;;;;;;;;;11.00;99.90;;;;;;5092287;28;19916;-63
2022/01/02 05:13:30;;;;;;;;;;;11.20;99.90;;;;;;5062511;28;20405;-63
2022/01/02 05:15:55;;;;;;;;;;;11.20;99.90;;;;;;5079587;28;20386;-63
2022/01/02 05:18:21;;;;;;;;;;;11.20;99.90;;;;;;5076639;28;19916;-63
2022/01/02 05:20:47;;;;;;;;;;;11.10;99.90;;;;;;5083954;28;19920;-63
2022/01/02 05:23:13;;;;;;;;;;;11.10;99.90;;;;;;5081939;28;19916;-63
2022/01/02 05:25:38;;;;;;;;;;;11.10;99.90;;;;;;5084932;28;19919;-63
2022/01/02 05:28:04;;;;;;;;;;;11.20;99.90;;;;;;5078366;28;19920;-63
2022/01/02 05:30:29;;;;;;;;;;;11.10;99.90;;;;;;5088916;27;19915;-63
2022/01/02 05:32:55;;;;;;;;;;;11.30;99.90;;;;;;5090786;27;20425;-63
2022/01/02 05:35:20;;;;;;;;;;;11.30;99.90;;;;;;5085252;28;19920;-63
2022/01/02 05:37:46;;;;;;;;;;;11.30;99.90;;;;;;5082946;28;19916;-63
2022/01/02 05:40:11;;;;;;;;;;;11.10;99.90;;;;;;5062823;28;19923;-63
2022/01/02 05:42:37;;;;;;;;;;;11.20;99.90;;;;;;5077435;28;19928;-63
2022/01/02 05:45:02;;;;;;;;;;;11.10;99.90;;;;;;5082084;28;20220;-63
2022/01/02 05:47:28;;;;;;;;;;;11.00;99.90;;;;;;5079071;28;20561;-63
2022/01/02 05:49:53;;;;;;;;;;;11.10;99.90;;;;;;5084021;28;19966;-63
2022/01/02 05:52:19;;;;;;;;;;;11.10;99.90;;;;;;5081510;28;20000;-63
2022/01/02 05:54:44;;;;;;;;;;;11.10;99.90;;;;;;5085833;28;19926;-63
2022/01/02 05:57:09;;;;;;;;;;;11.10;99.90;;;;;;5086371;28;19973;-63
2022/01/02 05:59:37;;;;;;;;;;;11.00;99.90;;;;;;5082813;28;20410;-63
2022/01/02 06:02:02;;;;;;;;;;;11.10;99.90;;;;;;5086747;28;19966;-63
2022/01/02 06:04:28;;;;;;;;;;;11.00;99.90;;;;;;5084889;28;20621;-63
2022/01/02 06:06:54;;;;;;;;;;;11.00;99.90;;;;;;5085663;28;20245;-63
2022/01/02 06:09:19;;;;;;;;;;;11.00;99.90;;;;;;5080657;28;19923;-63
2022/01/02 06:11:44;;;;;;;;;;;11.10;99.90;;;;;;5087809;28;19912;-63
2022/01/02 06:14:10;;;;;;;;;;;11.10;99.90;;;;;;5088532;28;19926;-63
2022/01/02 06:16:35;;;;;;;;;;;11.10;99.90;;;;;;5088365;28;19916;-63
2022/01/02 06:19:01;;;;;;;;;;;11.10;99.90;;;;;;5088536;28;19927;-63
2022/01/02 06:21:26;;;;;;;;;;;11.20;99.90;;;;;;5072828;28;19920;-63
2022/01/02 06:23:52;;;;;;;;;;;11.10;99.90;;;;;;5077653;28;19920;-63
2022/01/02 06:26:17;;;;;;;;;;;11.10;99.90;;;;;;5080595;28;20048;-63
2022/01/02 06:28:43;;;;;;;;;;;11.10;99.90;;;;;;5083483;28;19934;-63
2022/01/02 06:31:09;;;;;;;;;;;11.10;99.90;;;;;;5082160;28;19920;-63
2022/01/02 06:33:34;;;;;;;;;;;11.00;99.90;;;;;;5086166;28;19916;-63
2022/01/02 06:36:00;;;;;;;;;;;11.10;99.90;;;;;;5080957;28;19967;-63
2022/01/02 06:38:26;;;;;;;;;;;11.10;99.90;;;;;;5089417;28;19920;-63
2022/01/02 06:40:51;;;;;;;;;;;11.00;99.90;;;;;;5092363;28;20339;-63
2022/01/02 06:43:17;;;;;;;;;;;11.10;99.90;;;;;;5091080;28;19920;-64
2022/01/02 06:45:44;;;;;;;;;;;11.10;99.90;;;;;;5075072;28;19956;-63
2022/01/02 06:48:09;;;;;;;;;;;11.00;99.90;;;;;;5083261;28;20689;-63
2022/01/02 06:50:34;;;;;;;;;;;11.10;99.90;;;;;;5072669;28;19928;-63
2022/01/02 06:53:00;;;;;;;;;;;11.00;99.90;;;;;;5080760;28;20201;-63
2022/01/02 06:55:26;;;;;;;;;;;11.00;99.90;;;;;;5081870;28;20429;-63
2022/01/02 06:57:51;;;;;;;;;;;11.10;99.90;;;;;;5077782;28;20833;-63
2022/01/02 07:00:16;;;;;;;;;;;11.10;99.90;;;;;;5063412;28;19974;-63
2022/01/02 07:02:42;;;;;;;;;;;11.20;99.90;;;;;;5082263;28;19951;-63
2022/01/02 07:05:08;;;;;;;;;;;11.20;99.90;;;;;;5085658;28;19920;-63
2022/01/02 07:07:39;;;;;;;;;;;11.20;99.90;;;;;;5076292;28;20015;-63
2022/01/02 07:10:04;;;;;;;;;;;11.10;99.90;;;;;;5083649;28;20269;-63
2022/01/02 07:12:30;;;;;;;;;;;10.90;99.90;;;;;;5082714;28;20003;-63
2022/01/02 07:14:55;;;;;;;;;;;11.00;99.90;;;;;;5077061;28;19920;-63
2022/01/02 07:17:21;;;;;;;;;;;11.00;99.90;;;;;;5080302;28;19972;-63
2022/01/02 07:19:46;;;;;;;;;;;11.00;99.90;;;;;;5084538;28;20295;-63
2022/01/02 07:22:12;;;;;;;;;;;11.10;99.90;;;;;;5064713;28;19922;-63
2022/01/02 07:24:38;;;;;;;;;;;11.10;99.90;;;;;;5077053;28;19944;-63
2022/01/02 07:27:04;;;;;;;;;;;11.10;99.90;;;;;;5072529;28;19916;-63
2022/01/02 07:29:29;;;;;;;;;;;11.10;99.90;;;;;;5078521;28;19939;-63
2022/01/02 07:31:55;;;;;;;;;;;11.10;99.90;;;;;;5077147;28;20438;-64
2022/01/02 07:34:20;;;;;;;;;;;11.10;99.90;;;;;;5079935;28;19918;-63
2022/01/02 07:36:46;;;;;;;;;;;11.20;99.90;;;;;;5072249;28;19960;-63
2022/01/02 07:39:13;;;;;;;;;;;11.20;99.90;;;;;;5067606;28;20367;-63
2022/01/02 07:41:39;;;;;;;;;;;11.20;99.90;;;;;;5082574;28;19918;-63
2022/01/02 07:44:04;;;;;;;;;;;11.20;99.90;;;;;;5081067;28;19916;-63
2022/01/02 07:46:30;;;;;;;;;;;11.30;99.90;;;;;;5080842;28;19920;-63
2022/01/02 07:48:56;;;;;;;;;;;11.20;99.90;;;;;;5085334;28;19919;-63
2022/01/02 07:51:21;;;;;;;;;;;11.20;99.90;;;;;;5071635;28;20749;-63
2022/01/02 07:53:47;;;;;;;;;;;11.20;99.90;;;;;;5088180;28;19919;-63
2022/01/02 07:56:12;;;;;;;;;;;11.20;99.90;;;;;;5081987;28;20010;-63
2022/01/02 07:58:38;;;;;;;;;;;11.20;99.90;;;;;;5083254;28;19974;-63
2022/01/02 08:01:03;;;;;;;;;;;11.20;99.90;;;;;;5079828;28;19939;-63
2022/01/02 08:03:29;;;;;;;;;;;11.20;99.90;;;;;;5080997;28;19920;-63
2022/01/02 08:05:54;;;;;;;;;;;11.30;99.90;;;;;;5081575;28;20100;-63
2022/01/02 08:08:20;;;;;;;;;;;11.20;99.90;;;;;;5084345;28;19923;-63
2022/01/02 08:10:45;;;;;;;;;;;11.20;99.90;;;;;;5083067;28;19951;-63
2022/01/02 08:13:11;;;;;;;;;;;11.20;99.90;;;;;;5082359;28;20437;-63
2022/01/02 08:15:36;;;;;;;;;;;11.20;99.90;;;;;;5083608;28;19924;-64
2022/01/02 08:18:02;;;;;;;;;;;11.20;99.90;;;;;;5081119;28;19912;-63
2022/01/02 08:20:27;;;;;;;;;;;11.20;99.90;;;;;;5101290;27;20238;-63
2022/01/02 08:22:53;;;;;;;;;;;11.30;99.90;;;;;;5088670;28;19916;-64
2022/01/02 08:25:18;;;;;;;;;;;11.30;99.90;;;;;;5100592;27;19950;-63
2022/01/02 08:27:44;;;;;;;;;;;11.20;99.90;;;;;;5100922;27;20336;-63
2022/01/02 08:30:10;;;;;;;;;;;11.20;99.90;;;;;;5093562;27;19960;-63
2022/01/02 08:32:36;;;;;;;;;;;11.30;99.90;;;;;;5093748;27;19920;-63
2022/01/02 08:35:02;;;;;;;;;;;11.30;99.90;;;;;;5101300;28;19939;-63
2022/01/02 08:37:27;;;;;;;;;;;11.30;99.90;;;;;;5082192;28;19916;-64
2022/01/02 08:39:53;;;;;;;;;;;11.30;99.90;;;;;;5098021;28;19923;-64
2022/01/02 08:42:18;;;;;;;;;;;11.40;99.90;;;;;;5086556;28;19920;-67
2022/01/02 08:44:44;;;;;;;;;;;11.30;99.90;;;;;;5087170;28;19920;-68
2022/01/02 08:47:10;;;;;;;;;;;11.30;99.90;;;;;;5093331;28;19924;-67
2022/01/02 08:49:36;;;;;;;;;;;11.30;99.90;;;;;;5082807;28;19915;-68
2022/01/02 08:52:01;;;;;;;;;;;11.40;99.90;;;;;;5102376;28;19923;-68
2022/01/02 08:54:27;;;;;;;;;;;11.30;99.90;;;;;;5096625;28;20619;-68
2022/01/02 08:56:52;;;;;;;;;;;11.30;99.90;;;;;;5095742;28;19916;-67
2022/01/02 08:59:21;;;;;;;;;;;11.40;99.90;;;;;;5100366;28;19916;-67
2022/01/02 09:01:47;;;;;;;;;;;11.40;99.90;;;;;;5095524;28;19977;-69
2022/01/02 09:04:12;;;;;;;;;;;11.40;99.90;;;;;;5097160;28;19919;-66
2022/01/02 09:06:37;;;;;;;;;;;11.40;99.90;;;;;;5096040;28;19948;-67
2022/01/02 09:09:03;;;;;;;;;;;11.40;99.90;;;;;;5100422;28;20283;-67
2022/01/02 09:11:28;;;;;;;;;;;11.50;99.90;;;;;;5101659;28;19915;-69
2022/01/02 09:13:54;;;;;;;;;;;11.50;99.90;;;;;;5082869;28;19948;-67
2022/01/02 09:16:20;;;;;;;;;;;11.50;99.90;;;;;;5079354;28;19955;-67
2022/01/02 09:18:46;;;;;;;;;;;11.50;99.90;;;;;;5095305;28;19912;-69
2022/01/02 09:21:11;;;;;;;;;;;11.60;99.90;;;;;;5098425;28;19965;-68
2022/01/02 09:23:36;;;;;;;;;;;11.60;99.90;;;;;;5100150;28;20295;-67
2022/01/02 09:26:02;;;;;;;;;;;11.60;99.90;;;;;;5089974;28;19931;-67
2022/01/02 09:28:28;;;;;;;;;;;11.60;99.90;;;;;;5069056;28;19912;-68
2022/01/02 09:30:53;;;;;;;;;;;11.70;99.90;;;;;;5078635;28;19931;-68
2022/01/02 09:33:19;;;;;;;;;;;11.70;99.90;;;;;;5069853;28;20376;-68
2022/01/02 09:35:45;;;;;;;;;;;11.70;99.90;;;;;;5101115;28;19920;-68
2022/01/02 09:38:11;;;;;;;;;;;11.60;99.90;;;;;;5096462;28;20264;-68
2022/01/02 09:40:36;;;;;;;;;;;11.60;99.90;;;;;;5101503;28;19937;-68
2022/01/02 09:43:02;;;;;;;;;;;11.60;99.90;;;;;;5110164;28;19969;-68
2022/01/02 09:45:28;;;;;;;;;;;11.60;99.90;;;;;;5083829;28;19972;-66
2022/01/02 09:47:54;;;;;;;;;;;11.60;99.90;;;;;;5098251;28;19950;-66
2022/01/02 09:50:19;;;;;;;;;;;11.60;99.90;;;;;;5080000;28;19929;-68
2022/01/02 09:52:46;;;;;;;;;;;11.60;99.90;;;;;;5101841;28;20503;-68
2022/01/02 09:55:11;;;;;;;;;;;11.60;99.90;;;;;;5106159;27;19923;-66
2022/01/02 09:57:44;;;;;;;;;;;11.70;99.90;;;;;;5106025;27;19919;-66
2022/01/02 10:00:10;;;;;;;;;;;11.70;99.90;;;;;;5103577;27;19920;-68
2022/01/02 10:02:55;;;;;;;;;;;11.80;99.90;;;;;;5103147;27;19919;-69
2022/01/02 10:05:24;;;;;;;;;;;11.80;99.90;;;;;;5086582;28;20376;-67
2022/01/02 10:07:50;;;;;;;;;;;11.90;99.90;;;;;;5103462;27;19980;-68
2022/01/02 10:10:15;;;;;;;;;;;11.90;99.90;;;;;;5099424;27;19920;-67
2022/01/02 10:12:41;;;;;;;;;;;12.00;99.90;;;;;;5102241;27;19944;-67
2022/01/02 10:15:06;;;;;;;;;;;12.10;99.90;;;;;;5102141;27;19916;-69
2022/01/02 10:17:49;;;;;;;;;;;12.20;99.90;;;;;;5105912;27;19916;-67
2022/01/02 10:20:15;;;;;;;;;;;12.20;99.90;;;;;;5100709;27;19996;-68
2022/01/02 10:22:59;;;;;;;;;;;12.30;99.90;;;;;;5107077;27;19920;-67
2022/01/02 10:25:39;;;;;;;;;;;12.40;99.90;;;;;;5097804;27;19955;-68
2022/01/02 10:28:20;;;;;;;;;;;12.40;99.90;;;;;;5105320;27;19915;-66
2022/01/02 10:30:47;;;;;;;;;;;12.60;99.90;;;;;;5104728;27;19926;-68
2022/01/02 10:33:12;;;;;;;;;;;12.60;99.90;;;;;;5101971;27;19958;-66
2022/01/02 10:35:38;;;;;;;;;;;12.60;99.90;;;;;;5093981;27;19955;-66
2022/01/02 10:38:04;;;;;;;;;;;12.60;99.90;;;;;;5093301;27;19924;-68
2022/01/02 10:40:30;;;;;;;;;;;12.60;99.90;;;;;;5097656;27;20426;-67
2022/01/02 10:42:56;;;;;;;;;;;12.60;99.90;;;;;;5100592;27;20010;-67
2022/01/02 10:45:35;;;;;;;;;;;12.60;99.90;;;;;;5105585;27;20467;-67
2022/01/02 10:48:02;;;;;;;;;;;12.70;99.90;;;;;;5101022;27;19928;-68
2022/01/02 10:50:27;;;;;;;;;;;12.70;99.90;;;;;;5107920;27;19923;-68
2022/01/02 10:52:53;;;;;;;;;;;12.80;99.90;;;;;;5105863;27;19966;-68
2022/01/02 10:55:19;;;;;;;;;;;12.90;99.90;;;;;;5101450;27;19919;-67
2022/01/02 10:57:49;;;;;;;;;;;13.00;99.90;;;;;;5100202;28;19966;-66
2022/01/02 11:00:16;;;;;;;;;;;13.00;99.90;;;;;;5100453;27;20414;-68
2022/01/02 11:02:41;;;;;;;;;;;13.00;99.90;;;;;;5095790;28;20009;-66
2022/01/02 11:05:08;;;;;;;;;;;13.00;99.90;;;;;;5101395;27;19919;-68
2022/01/02 11:07:41;;;;;;;;;;;13.00;99.90;;;;;;5085433;28;20002;-68
2022/01/02 11:10:07;;;;;;;;;;;13.10;99.90;;;;;;5084356;27;19926;-67
2022/01/02 11:12:32;;;;;;;;;;;13.00;99.90;;;;;;5102430;28;20308;-68
2022/01/02 11:14:58;;;;;;;;;;;13.10;99.90;;;;;;5101839;27;19919;-68
2022/01/02 11:17:24;;;;;;;;;;;13.10;99.90;;;;;;5094290;28;19976;-66
2022/01/02 11:19:50;;;;;;;;;;;13.00;99.90;;;;;;5100937;27;20336;-67
2022/01/02 11:22:44;;;;;;;;;;;13.00;99.90;;;;;;5096428;28;19911;-66
2022/01/02 11:25:22;;;;;;;;;;;13.00;99.90;;;;;;5082444;27;19924;-68
2022/01/02 11:27:54;;;;;;;;;;;13.10;99.90;;;;;;5099954;27;19916;-68
2022/01/02 11:30:35;;;;;;;;;;;13.00;99.90;;;;;;5095576;28;20364;-67
2022/01/02 11:33:01;;;;;;;;;;;13.10;99.90;;;;;;5100817;27;19926;-69
2022/01/02 11:35:30;;;;;;;;;;;13.10;99.90;;;;;;5099063;27;19958;-67
2022/01/02 11:38:01;;;;;;;;;;;13.10;99.90;;;;;;5098524;27;19923;-67
2022/01/02 11:40:42;;;;;;;;;;;13.10;99.90;;;;;;5085185;27;20384;-66
2022/01/02 11:43:07;;;;;;;;;;;13.10;99.90;;;;;;5096982;27;20007;-68
2022/01/02 11:45:40;;;;;;;;;;;13.10;99.90;;;;;;5098063;27;20481;-66
2022/01/02 11:48:25;;;;;;;;;;;13.10;99.90;;;;;;5095460;27;20014;-66
2022/01/02 11:50:51;;;;;;;;;;;13.10;99.90;;;;;;5085838;28;20169;-68
2022/01/02 11:53:18;;;;;;;;;;;13.20;99.90;;;;;;5097956;27;19920;-67
2022/01/02 11:55:44;;;;;;;;;;;13.20;99.90;;;;;;5077872;28;20038;-67
2022/01/02 11:58:10;;;;;;;;;;;13.20;99.90;;;;;;5098329;27;19923;-69
2022/01/02 12:00:37;;;;;;;;;;;13.20;99.90;;;;;;5097707;27;19916;-69
2022/01/02 12:03:02;;;;;;;;;;;13.20;99.90;;;;;;5090174;28;19915;-68
2022/01/02 12:05:28;;;;;;;;;;;13.20;99.90;;;;;;5084305;28;19968;-67
2022/01/02 12:07:53;;;;;;;;;;;13.20;99.90;;;;;;5097836;27;20157;-68
2022/01/02 12:10:20;;;;;;;;;;;13.20;99.90;;;;;;5100983;27;19924;-66
2022/01/02 12:13:06;;;;;;;;;;;13.10;99.90;;;;;;5092925;27;19915;-66
2022/01/02 12:15:31;;;;;;;;;;;13.10;99.90;;;;;;5081815;28;20297;-68
2022/01/02 12:18:03;;;;;;;;;;;13.10;99.90;;;;;;5093597;27;19935;-67
2022/01/02 12:20:28;;;;;;;;;;;13.10;99.90;;;;;;5089429;27;19935;-67
2022/01/02 12:22:54;;;;;;;;;;;13.10;99.90;;;;;;5080715;28;19916;-68
2022/01/02 12:25:20;;;;;;;;;;;13.10;99.90;;;;;;5078855;28;20042;-67
2022/01/02 12:27:50;;;;;;;;;;;13.10;99.90;;;;;;5073212;28;19924;-67
2022/01/02 12:30:17;;;;;;;;;;;13.10;99.90;;;;;;5072225;28;19920;-67
2022/01/02 12:32:44;;;;;;;;;;;13.10;99.90;;;;;;5080117;28;19919;-67
2022/01/02 12:35:09;;;;;;;;;;;13.10;99.90;;;;;;5079842;28;20416;-69
2022/01/02 12:37:35;;;;;;;;;;;13.10;99.90;;;;;;5086584;28;20339;-67
2022/01/02 12:40:00;;;;;;;;;;;13.10;99.90;;;;;;5081945;28;19920;-69
2022/01/02 12:42:26;;;;;;;;;;;13.10;99.90;;;;;;5092400;27;19916;-67
2022/01/02 12:44:52;;;;;;;;;;;13.10;99.90;;;;;;5072917;28;20273;-67
2022/01/02 12:47:19;;;;;;;;;;;13.10;99.90;;;;;;5098018;28;19936;-69
2022/01/02 12:49:45;;;;;;;;;;;13.10;99.90;;;;;;5100826;28;19931;-68
2022/01/02 12:52:11;;;;;;;;;;;13.10;99.90;;;;;;5095794;28;19924;-69
2022/01/02 12:54:38;;;;;;;;;;;13.10;99.90;;;;;;5087075;28;20394;-68
2022/01/02 12:57:08;;;;;;;;;;;13.10;99.90;;;;;;5097700;28;20398;-67
2022/01/02 12:59:41;;;;;;;;;;;13.10;99.90;;;;;;5105666;27;19986;-69
2022/01/02 13:02:07;;;;;;;;;;;13.20;99.90;;;;;;5100202;27;19988;-67
2022/01/02 13:04:35;;;;;;;;;;;13.20;99.90;;;;;;5096140;28;19920;-67
2022/01/02 13:07:02;;;;;;;;;;;13.20;99.90;;;;;;5095975;28;20359;-69
2022/01/02 13:09:29;;;;;;;;;;;13.20;99.90;;;;;;5093526;28;20335;-68
2022/01/02 13:11:55;;;;;;;;;;;13.20;99.90;;;;;;5103712;28;20477;-68
2022/01/02 13:14:28;;;;;;;;;;;13.20;99.90;;;;;;5094054;27;19920;-69
2022/01/02 13:16:54;;;;;;;;;;;13.20;99.90;;;;;;5094623;27;19919;-68
2022/01/02 13:19:19;;;;;;;;;;;13.20;99.90;;;;;;5093744;28;20417;-68
2022/01/02 13:21:45;;;;;;;;;;;13.20;99.90;;;;;;5082863;28;19923;-66
2022/01/02 13:24:23;;;;;;;;;;;13.20;99.90;;;;;;5070031;28;20010;-68
2022/01/02 13:26:48;;;;;;;;;;;13.20;99.90;;;;;;5097825;28;19923;-68
2022/01/02 13:29:24;;;;;;;;;;;13.20;99.90;;;;;;5076822;27;19968;-66
2022/01/02 13:31:50;;;;;;;;;;;13.30;99.90;;;;;;5086716;27;19920;-68
2022/01/02 13:34:25;;;;;;;;;;;13.30;99.90;;;;;;5085913;27;20287;-69
2022/01/02 13:36:58;;;;;;;;;;;13.30;99.90;;;;;;5092016;27;19953;-69
2022/01/02 13:39:43;;;;;;;;;;;13.20;99.90;;;;;;5078693;28;20037;-69
2022/01/02 13:42:09;;;;;;;;;;;13.20;99.90;;;;;;5100004;27;19915;-69
2022/01/02 13:44:36;;;;;;;;;;;13.20;99.90;;;;;;5105644;27;19950;-69
2022/01/02 13:47:01;;;;;;;;;;;13.20;99.90;;;;;;5102450;27;19973;-68
2022/01/02 13:49:45;;;;;;;;;;;13.20;99.90;;;;;;5078881;27;19958;-69
2022/01/02 13:52:11;;;;;;;;;;;13.20;99.90;;;;;;5095476;27;19920;-68
2022/01/02 13:54:37;;;;;;;;;;;13.20;99.90;;;;;;5094451;27;19946;-67
2022/01/02 13:57:05;;;;;;;;;;;13.20;99.90;;;;;;5088941;27;19923;-68
2022/01/02 13:59:31;;;;;;;;;;;13.20;99.90;;;;;;5104152;27;19976;-69
2022/01/02 14:01:57;;;;;;;;;;;13.20;99.90;;;;;;5100661;27;19915;-69
2022/01/02 14:04:22;;;;;;;;;;;13.30;99.90;;;;;;5101091;27;19958;-68
2022/01/02 14:06:48;;;;;;;;;;;13.20;99.90;;;;;;5101983;27;19923;-69
2022/01/02 14:09:14;;;;;;;;;;;13.30;99.90;;;;;;5093235;27;19954;-69
2022/01/02 14:11:41;;;;;;;;;;;13.30;99.90;;;;;;5092022;27;19923;-69
2022/01/02 14:14:46;;;;;;;;;;;13.30;99.90;;;;;;5090507;27;20834;-68
2022/01/02 14:19:39;;;;;;;;;;;13.30;99.90;;;;;;5098502;27;19920;-67
2022/01/02 14:22:05;;;;;;;;;;;13.20;99.90;;;;;;5098020;28;19916;-69
2022/01/02 14:24:31;;;;;;;;;;;13.30;99.90;;;;;;5095637;28;19924;-68